sensor_id;sensor_type;location;lat;lon;timestamp;P1;durP1;ratioP1;P2;durP2;ratioP2
26989;SDS011;14537;47.788;11.858;2023-04-21T00:01:10;6.63;;;3.63;;
26989;SDS011;14537;47.788;11.858;2023-04-21T00:03:36;5.88;;;3.47;;
26989;SDS011;14537;47.788;11.858;2023-04-21T00:06:22;7.87;;;3.49;;
26989;SDS011;14537;47.788;11.858;2023-04-21T00:08:48;5.43;;;2.63;;
26989;SDS011;14537;47.788;11.858;2023-04-21T00:11:14;4.50;;;2.80;;
26989;SDS011;14537;47.788;11.858;2023-04-21T00:13:40;5.85;;;3.25;;
26989;SDS011;14537;47.788;11.858;2023-04-21T00:16:06;8.82;;;4.07;;
26989;SDS011;14537;47.788;11.858;2023-04-21T00:18:31;6.45;;;3.30;;
26989;SDS011;14537;47.788;11.858;2023-04-21T00:20:57;5.82;;;3.50;;
26989;SDS011;14537;47.788;11.858;2023-04-21T00:23:23;5.07;;;3.20;;
26989;SDS011;14537;47.788;11.858;2023-04-21T00:25:49;5.43;;;3.40;;
26989;SDS011;14537;47.788;11.858;2023-04-21T00:28:14;5.50;;;2.80;;
26989;SDS011;14537;47.788;11.858;2023-04-21T00:30:40;4.10;;;2.88;;
26989;SDS011;14537;47.788;11.858;2023-04-21T00:33:06;5.70;;;3.28;;
26989;SDS011;14537;47.788;11.858;2023-04-21T00:35:31;7.00;;;3.10;;
26989;SDS011;14537;47.788;11.858;2023-04-21T00:37:57;7.38;;;3.67;;
26989;SDS011;14537;47.788;11.858;2023-04-21T00:40:22;5.93;;;3.45;;
26989;SDS011;14537;47.788;11.858;2023-04-21T00:42:48;6.60;;;4.03;;
26989;SDS011;14537;47.788;11.858;2023-04-21T00:45:14;7.65;;;4.20;;
26989;SDS011;14537;47.788;11.858;2023-04-21T00:47:40;8.20;;;3.92;;
26989;SDS011;14537;47.788;11.858;2023-04-21T00:50:06;10.43;;;5.07;;
26989;SDS011;14537;47.788;11.858;2023-04-21T00:52:32;9.45;;;4.50;;
26989;SDS011;14537;47.788;11.858;2023-04-21T00:54:59;6.28;;;3.65;;
26989;SDS011;14537;47.788;11.858;2023-04-21T00:57:25;6.18;;;3.55;;
26989;SDS011;14537;47.788;11.858;2023-04-21T00:59:52;6.38;;;3.50;;
26989;SDS011;14537;47.788;11.858;2023-04-21T01:02:18;7.50;;;3.30;;
26989;SDS011;14537;47.788;11.858;2023-04-21T01:04:44;4.85;;;2.83;;
26989;SDS011;14537;47.788;11.858;2023-04-21T01:07:09;6.93;;;3.38;;
26989;SDS011;14537;47.788;11.858;2023-04-21T01:09:35;6.95;;;3.72;;
26989;SDS011;14537;47.788;11.858;2023-04-21T01:14:27;5.45;;;3.47;;
26989;SDS011;14537;47.788;11.858;2023-04-21T01:16:53;4.53;;;3.05;;
26989;SDS011;14537;47.788;11.858;2023-04-21T01:19:19;6.07;;;2.78;;
26989;SDS011;14537;47.788;11.858;2023-04-21T01:21:44;7.95;;;4.28;;
26989;SDS011;14537;47.788;11.858;2023-04-21T01:24:11;5.15;;;3.10;;
26989;SDS011;14537;47.788;11.858;2023-04-21T01:26:37;5.25;;;3.40;;
26989;SDS011;14537;47.788;11.858;2023-04-21T01:29:03;7.35;;;3.47;;
26989;SDS011;14537;47.788;11.858;2023-04-21T01:31:28;6.55;;;3.53;;
26989;SDS011;14537;47.788;11.858;2023-04-21T01:33:54;6.25;;;3.20;;
26989;SDS011;14537;47.788;11.858;2023-04-21T01:36:20;6.38;;;3.70;;
26989;SDS011;14537;47.788;11.858;2023-04-21T01:38:45;5.95;;;3.38;;
26989;SDS011;14537;47.788;11.858;2023-04-21T01:41:11;4.85;;;3.20;;
26989;SDS011;14537;47.788;11.858;2023-04-21T01:43:37;6.05;;;3.78;;
26989;SDS011;14537;47.788;11.858;2023-04-21T01:46:03;7.43;;;3.72;;
26989;SDS011;14537;47.788;11.858;2023-04-21T01:48:29;7.38;;;3.22;;
26989;SDS011;14537;47.788;11.858;2023-04-21T01:50:55;7.55;;;3.88;;
26989;SDS011;14537;47.788;11.858;2023-04-21T01:53:21;5.88;;;3.28;;
26989;SDS011;14537;47.788;11.858;2023-04-21T01:55:47;5.53;;;3.13;;
26989;SDS011;14537;47.788;11.858;2023-04-21T01:58:12;7.95;;;3.92;;
26989;SDS011;14537;47.788;11.858;2023-04-21T02:00:38;6.53;;;3.67;;
26989;SDS011;14537;47.788;11.858;2023-04-21T02:03:04;7.97;;;3.92;;
26989;SDS011;14537;47.788;11.858;2023-04-21T02:05:30;7.75;;;4.07;;
26989;SDS011;14537;47.788;11.858;2023-04-21T02:07:55;7.63;;;3.80;;
26989;SDS011;14537;47.788;11.858;2023-04-21T02:10:21;9.25;;;4.70;;
26989;SDS011;14537;47.788;11.858;2023-04-21T02:12:47;11.07;;;5.43;;
26989;SDS011;14537;47.788;11.858;2023-04-21T02:15:12;9.27;;;4.85;;
26989;SDS011;14537;47.788;11.858;2023-04-21T02:17:38;8.20;;;4.65;;
26989;SDS011;14537;47.788;11.858;2023-04-21T02:20:04;7.28;;;4.20;;
26989;SDS011;14537;47.788;11.858;2023-04-21T02:22:31;8.40;;;4.00;;
26989;SDS011;14537;47.788;11.858;2023-04-21T02:24:56;9.48;;;4.80;;
26989;SDS011;14537;47.788;11.858;2023-04-21T02:27:22;7.95;;;4.43;;
26989;SDS011;14537;47.788;11.858;2023-04-21T02:29:47;8.65;;;4.18;;
26989;SDS011;14537;47.788;11.858;2023-04-21T02:32:13;11.02;;;4.75;;
26989;SDS011;14537;47.788;11.858;2023-04-21T02:34:39;8.52;;;4.60;;
26989;SDS011;14537;47.788;11.858;2023-04-21T02:37:06;9.35;;;4.07;;
26989;SDS011;14537;47.788;11.858;2023-04-21T02:39:31;10.20;;;5.25;;
26989;SDS011;14537;47.788;11.858;2023-04-21T02:41:57;9.20;;;4.97;;
26989;SDS011;14537;47.788;11.858;2023-04-21T02:44:22;9.95;;;5.15;;
26989;SDS011;14537;47.788;11.858;2023-04-21T02:46:48;9.90;;;5.15;;
26989;SDS011;14537;47.788;11.858;2023-04-21T02:49:13;10.93;;;5.55;;
26989;SDS011;14537;47.788;11.858;2023-04-21T02:51:39;13.48;;;6.30;;
26989;SDS011;14537;47.788;11.858;2023-04-21T02:54:05;11.70;;;5.82;;
26989;SDS011;14537;47.788;11.858;2023-04-21T02:56:30;15.73;;;6.82;;
26989;SDS011;14537;47.788;11.858;2023-04-21T02:58:58;12.25;;;6.28;;
26989;SDS011;14537;47.788;11.858;2023-04-21T03:01:24;11.93;;;6.53;;
26989;SDS011;14537;47.788;11.858;2023-04-21T03:03:49;13.93;;;6.97;;
26989;SDS011;14537;47.788;11.858;2023-04-21T03:06:15;10.63;;;6.28;;
26989;SDS011;14537;47.788;11.858;2023-04-21T03:08:40;15.73;;;6.80;;
26989;SDS011;14537;47.788;11.858;2023-04-21T03:11:06;9.60;;;5.22;;
26989;SDS011;14537;47.788;11.858;2023-04-21T03:13:32;9.60;;;5.63;;
26989;SDS011;14537;47.788;11.858;2023-04-21T03:15:57;12.73;;;5.68;;
26989;SDS011;14537;47.788;11.858;2023-04-21T03:18:23;11.75;;;5.50;;
26989;SDS011;14537;47.788;11.858;2023-04-21T03:20:48;11.38;;;5.68;;
26989;SDS011;14537;47.788;11.858;2023-04-21T03:23:14;14.27;;;5.97;;
26989;SDS011;14537;47.788;11.858;2023-04-21T03:25:40;9.70;;;5.00;;
26989;SDS011;14537;47.788;11.858;2023-04-21T03:28:06;8.40;;;4.50;;
26989;SDS011;14537;47.788;11.858;2023-04-21T03:30:32;13.10;;;6.45;;
26989;SDS011;14537;47.788;11.858;2023-04-21T03:32:57;12.95;;;6.82;;
26989;SDS011;14537;47.788;11.858;2023-04-21T03:35:23;16.38;;;7.18;;
26989;SDS011;14537;47.788;11.858;2023-04-21T03:37:49;14.23;;;7.35;;
26989;SDS011;14537;47.788;11.858;2023-04-21T03:40:14;18.10;;;8.00;;
26989;SDS011;14537;47.788;11.858;2023-04-21T03:42:40;16.45;;;7.72;;
26989;SDS011;14537;47.788;11.858;2023-04-21T03:45:07;17.80;;;8.27;;
26989;SDS011;14537;47.788;11.858;2023-04-21T03:47:33;15.27;;;7.18;;
26989;SDS011;14537;47.788;11.858;2023-04-21T03:49:59;19.00;;;7.40;;
26989;SDS011;14537;47.788;11.858;2023-04-21T03:52:27;18.45;;;7.95;;
26989;SDS011;14537;47.788;11.858;2023-04-21T03:54:52;18.52;;;8.02;;
26989;SDS011;14537;47.788;11.858;2023-04-21T03:57:18;17.30;;;8.18;;
26989;SDS011;14537;47.788;11.858;2023-04-21T03:59:43;19.42;;;7.55;;
26989;SDS011;14537;47.788;11.858;2023-04-21T04:02:09;17.05;;;7.38;;
26989;SDS011;14537;47.788;11.858;2023-04-21T04:04:35;15.35;;;7.57;;
26989;SDS011;14537;47.788;11.858;2023-04-21T04:07:01;13.57;;;7.07;;
26989;SDS011;14537;47.788;11.858;2023-04-21T04:09:26;14.23;;;6.93;;
26989;SDS011;14537;47.788;11.858;2023-04-21T04:11:52;18.63;;;7.90;;
26989;SDS011;14537;47.788;11.858;2023-04-21T04:14:18;16.95;;;7.35;;
26989;SDS011;14537;47.788;11.858;2023-04-21T04:16:43;13.63;;;6.90;;
26989;SDS011;14537;47.788;11.858;2023-04-21T04:19:09;14.25;;;7.43;;
26989;SDS011;14537;47.788;11.858;2023-04-21T04:21:35;14.98;;;7.22;;
26989;SDS011;14537;47.788;11.858;2023-04-21T04:24:01;16.60;;;7.47;;
26989;SDS011;14537;47.788;11.858;2023-04-21T04:26:27;18.40;;;8.10;;
26989;SDS011;14537;47.788;11.858;2023-04-21T04:28:53;19.83;;;8.55;;
26989;SDS011;14537;47.788;11.858;2023-04-21T04:31:23;22.08;;;9.18;;
26989;SDS011;14537;47.788;11.858;2023-04-21T04:33:49;22.70;;;9.90;;
26989;SDS011;14537;47.788;11.858;2023-04-21T04:36:18;19.57;;;8.07;;
26989;SDS011;14537;47.788;11.858;2023-04-21T04:38:43;17.33;;;8.27;;
26989;SDS011;14537;47.788;11.858;2023-04-21T04:41:10;17.90;;;7.72;;
26989;SDS011;14537;47.788;11.858;2023-04-21T04:43:36;18.38;;;8.52;;
26989;SDS011;14537;47.788;11.858;2023-04-21T04:46:03;17.42;;;7.75;;
26989;SDS011;14537;47.788;11.858;2023-04-21T04:48:29;25.27;;;8.70;;
26989;SDS011;14537;47.788;11.858;2023-04-21T04:50:55;19.27;;;9.18;;
26989;SDS011;14537;47.788;11.858;2023-04-21T04:53:21;19.55;;;9.07;;
26989;SDS011;14537;47.788;11.858;2023-04-21T04:55:46;22.88;;;10.48;;
26989;SDS011;14537;47.788;11.858;2023-04-21T04:58:12;23.42;;;10.65;;
26989;SDS011;14537;47.788;11.858;2023-04-21T05:00:38;23.27;;;11.43;;
26989;SDS011;14537;47.788;11.858;2023-04-21T05:03:03;23.38;;;10.98;;
26989;SDS011;14537;47.788;11.858;2023-04-21T05:05:29;20.40;;;9.65;;
26989;SDS011;14537;47.788;11.858;2023-04-21T05:07:55;22.20;;;9.80;;
26989;SDS011;14537;47.788;11.858;2023-04-21T05:10:21;26.85;;;11.30;;
26989;SDS011;14537;47.788;11.858;2023-04-21T05:12:47;23.85;;;10.43;;
26989;SDS011;14537;47.788;11.858;2023-04-21T05:15:13;19.40;;;8.82;;
26989;SDS011;14537;47.788;11.858;2023-04-21T05:17:38;24.10;;;10.73;;
26989;SDS011;14537;47.788;11.858;2023-04-21T05:20:04;22.45;;;9.18;;
26989;SDS011;14537;47.788;11.858;2023-04-21T05:22:31;29.63;;;10.95;;
26989;SDS011;14537;47.788;11.858;2023-04-21T05:25:00;26.05;;;11.98;;
26989;SDS011;14537;47.788;11.858;2023-04-21T05:27:26;22.40;;;10.05;;
26989;SDS011;14537;47.788;11.858;2023-04-21T05:29:52;24.23;;;11.55;;
26989;SDS011;14537;47.788;11.858;2023-04-21T05:32:19;27.40;;;11.68;;
26989;SDS011;14537;47.788;11.858;2023-04-21T05:34:45;22.00;;;10.57;;
26989;SDS011;14537;47.788;11.858;2023-04-21T05:37:10;26.67;;;11.07;;
26989;SDS011;14537;47.788;11.858;2023-04-21T05:39:36;21.77;;;10.82;;
26989;SDS011;14537;47.788;11.858;2023-04-21T05:42:02;20.10;;;9.93;;
26989;SDS011;14537;47.788;11.858;2023-04-21T05:44:28;22.15;;;10.13;;
26989;SDS011;14537;47.788;11.858;2023-04-21T05:46:53;19.48;;;8.63;;
26989;SDS011;14537;47.788;11.858;2023-04-21T05:49:19;21.73;;;9.95;;
26989;SDS011;14537;47.788;11.858;2023-04-21T05:51:45;19.83;;;8.80;;
26989;SDS011;14537;47.788;11.858;2023-04-21T05:54:10;20.90;;;9.13;;
26989;SDS011;14537;47.788;11.858;2023-04-21T05:56:36;22.00;;;10.55;;
26989;SDS011;14537;47.788;11.858;2023-04-21T05:59:01;19.08;;;9.20;;
26989;SDS011;14537;47.788;11.858;2023-04-21T06:01:28;21.27;;;9.27;;
26989;SDS011;14537;47.788;11.858;2023-04-21T06:03:53;17.75;;;8.57;;
26989;SDS011;14537;47.788;11.858;2023-04-21T06:06:19;20.25;;;9.18;;
26989;SDS011;14537;47.788;11.858;2023-04-21T06:08:44;16.77;;;9.15;;
26989;SDS011;14537;47.788;11.858;2023-04-21T06:11:10;19.55;;;8.70;;
26989;SDS011;14537;47.788;11.858;2023-04-21T06:13:36;18.48;;;9.27;;
26989;SDS011;14537;47.788;11.858;2023-04-21T06:16:01;20.15;;;8.98;;
26989;SDS011;14537;47.788;11.858;2023-04-21T06:18:27;17.90;;;9.18;;
26989;SDS011;14537;47.788;11.858;2023-04-21T06:20:53;14.77;;;8.02;;
26989;SDS011;14537;47.788;11.858;2023-04-21T06:23:19;18.25;;;8.95;;
26989;SDS011;14537;47.788;11.858;2023-04-21T06:25:45;18.25;;;8.93;;
26989;SDS011;14537;47.788;11.858;2023-04-21T06:28:11;20.38;;;9.10;;
26989;SDS011;14537;47.788;11.858;2023-04-21T06:30:36;18.10;;;9.40;;
26989;SDS011;14537;47.788;11.858;2023-04-21T06:33:02;17.35;;;8.75;;
26989;SDS011;14537;47.788;11.858;2023-04-21T06:35:28;19.00;;;8.63;;
26989;SDS011;14537;47.788;11.858;2023-04-21T06:37:55;19.17;;;8.73;;
26989;SDS011;14537;47.788;11.858;2023-04-21T06:40:20;21.52;;;9.27;;
26989;SDS011;14537;47.788;11.858;2023-04-21T06:42:46;19.58;;;8.60;;
26989;SDS011;14537;47.788;11.858;2023-04-21T06:45:12;21.08;;;9.30;;
26989;SDS011;14537;47.788;11.858;2023-04-21T06:47:37;20.42;;;9.00;;
26989;SDS011;14537;47.788;11.858;2023-04-21T06:50:03;22.30;;;9.50;;
26989;SDS011;14537;47.788;11.858;2023-04-21T06:52:29;18.10;;;8.25;;
26989;SDS011;14537;47.788;11.858;2023-04-21T06:54:55;17.63;;;8.57;;
26989;SDS011;14537;47.788;11.858;2023-04-21T06:57:21;18.80;;;9.50;;
26989;SDS011;14537;47.788;11.858;2023-04-21T06:59:47;19.33;;;8.98;;
26989;SDS011;14537;47.788;11.858;2023-04-21T07:02:12;20.73;;;9.52;;
26989;SDS011;14537;47.788;11.858;2023-04-21T07:04:38;17.52;;;8.60;;
26989;SDS011;14537;47.788;11.858;2023-04-21T07:07:03;17.15;;;8.93;;
26989;SDS011;14537;47.788;11.858;2023-04-21T07:09:29;15.38;;;7.80;;
26989;SDS011;14537;47.788;11.858;2023-04-21T07:11:57;14.57;;;7.40;;
26989;SDS011;14537;47.788;11.858;2023-04-21T07:14:23;14.68;;;7.63;;
26989;SDS011;14537;47.788;11.858;2023-04-21T07:16:49;16.75;;;8.20;;
26989;SDS011;14537;47.788;11.858;2023-04-21T07:19:15;17.40;;;8.15;;
26989;SDS011;14537;47.788;11.858;2023-04-21T07:21:40;16.70;;;7.53;;
26989;SDS011;14537;47.788;11.858;2023-04-21T07:24:06;15.40;;;7.95;;
26989;SDS011;14537;47.788;11.858;2023-04-21T07:26:32;18.38;;;7.40;;
26989;SDS011;14537;47.788;11.858;2023-04-21T07:28:58;17.83;;;8.80;;
26989;SDS011;14537;47.788;11.858;2023-04-21T07:31:23;16.73;;;7.22;;
26989;SDS011;14537;47.788;11.858;2023-04-21T07:33:49;15.18;;;7.38;;
26989;SDS011;14537;47.788;11.858;2023-04-21T07:36:15;14.32;;;7.20;;
26989;SDS011;14537;47.788;11.858;2023-04-21T07:38:41;16.25;;;7.95;;
26989;SDS011;14537;47.788;11.858;2023-04-21T07:41:10;20.42;;;7.13;;
26989;SDS011;14537;47.788;11.858;2023-04-21T07:43:37;14.43;;;7.53;;
26989;SDS011;14537;47.788;11.858;2023-04-21T07:46:03;13.52;;;6.97;;
26989;SDS011;14537;47.788;11.858;2023-04-21T07:48:29;16.63;;;7.07;;
26989;SDS011;14537;47.788;11.858;2023-04-21T07:50:55;13.80;;;6.72;;
26989;SDS011;14537;47.788;11.858;2023-04-21T07:53:22;16.30;;;7.50;;
26989;SDS011;14537;47.788;11.858;2023-04-21T07:55:48;16.10;;;7.35;;
26989;SDS011;14537;47.788;11.858;2023-04-21T07:58:13;14.23;;;7.35;;
26989;SDS011;14537;47.788;11.858;2023-04-21T08:00:40;14.93;;;7.50;;
26989;SDS011;14537;47.788;11.858;2023-04-21T08:03:06;14.25;;;7.03;;
26989;SDS011;14537;47.788;11.858;2023-04-21T08:05:32;14.73;;;7.38;;
26989;SDS011;14537;47.788;11.858;2023-04-21T08:07:57;13.07;;;6.40;;
26989;SDS011;14537;47.788;11.858;2023-04-21T08:10:23;17.33;;;7.72;;
26989;SDS011;14537;47.788;11.858;2023-04-21T08:12:49;14.93;;;7.00;;
26989;SDS011;14537;47.788;11.858;2023-04-21T08:15:15;15.55;;;6.93;;
26989;SDS011;14537;47.788;11.858;2023-04-21T08:17:41;14.85;;;7.30;;
26989;SDS011;14537;47.788;11.858;2023-04-21T08:20:06;19.15;;;7.75;;
26989;SDS011;14537;47.788;11.858;2023-04-21T08:22:32;15.25;;;7.45;;
26989;SDS011;14537;47.788;11.858;2023-04-21T08:25:00;13.23;;;7.25;;
26989;SDS011;14537;47.788;11.858;2023-04-21T08:27:27;13.35;;;7.20;;
26989;SDS011;14537;47.788;11.858;2023-04-21T08:29:52;12.73;;;6.15;;
26989;SDS011;14537;47.788;11.858;2023-04-21T08:32:18;11.18;;;6.07;;
26989;SDS011;14537;47.788;11.858;2023-04-21T08:34:47;15.82;;;6.68;;
26989;SDS011;14537;47.788;11.858;2023-04-21T08:37:17;9.80;;;5.13;;
26989;SDS011;14537;47.788;11.858;2023-04-21T08:39:44;12.00;;;5.53;;
26989;SDS011;14537;47.788;11.858;2023-04-21T08:42:11;12.05;;;6.10;;
26989;SDS011;14537;47.788;11.858;2023-04-21T08:44:38;11.43;;;6.28;;
26989;SDS011;14537;47.788;11.858;2023-04-21T08:47:05;10.98;;;5.63;;
26989;SDS011;14537;47.788;11.858;2023-04-21T08:49:33;9.63;;;4.65;;
26989;SDS011;14537;47.788;11.858;2023-04-21T08:52:01;12.02;;;6.10;;
26989;SDS011;14537;47.788;11.858;2023-04-21T08:54:26;12.93;;;6.03;;
26989;SDS011;14537;47.788;11.858;2023-04-21T08:56:52;8.90;;;4.93;;
26989;SDS011;14537;47.788;11.858;2023-04-21T08:59:17;11.13;;;5.80;;
26989;SDS011;14537;47.788;11.858;2023-04-21T09:04:53;10.18;;;5.50;;
26989;SDS011;14537;47.788;11.858;2023-04-21T09:07:29;10.30;;;5.70;;
26989;SDS011;14537;47.788;11.858;2023-04-21T09:09:56;10.10;;;5.28;;
26989;SDS011;14537;47.788;11.858;2023-04-21T09:12:24;10.10;;;5.65;;
26989;SDS011;14537;47.788;11.858;2023-04-21T09:14:49;10.68;;;5.90;;
26989;SDS011;14537;47.788;11.858;2023-04-21T09:17:16;10.93;;;5.18;;
26989;SDS011;14537;47.788;11.858;2023-04-21T09:19:43;10.90;;;5.20;;
26989;SDS011;14537;47.788;11.858;2023-04-21T09:22:13;9.68;;;5.57;;
26989;SDS011;14537;47.788;11.858;2023-04-21T09:24:44;10.05;;;5.10;;
26989;SDS011;14537;47.788;11.858;2023-04-21T09:27:16;10.32;;;5.57;;
26989;SDS011;14537;47.788;11.858;2023-04-21T09:29:45;10.13;;;4.95;;
26989;SDS011;14537;47.788;11.858;2023-04-21T09:32:17;8.35;;;4.93;;
26989;SDS011;14537;47.788;11.858;2023-04-21T09:34:46;9.55;;;5.45;;
26989;SDS011;14537;47.788;11.858;2023-04-21T09:37:12;10.60;;;4.82;;
26989;SDS011;14537;47.788;11.858;2023-04-21T09:39:38;9.00;;;4.95;;
26989;SDS011;14537;47.788;11.858;2023-04-21T09:42:10;13.70;;;6.82;;
26989;SDS011;14537;47.788;11.858;2023-04-21T09:44:35;9.70;;;5.93;;
26989;SDS011;14537;47.788;11.858;2023-04-21T09:47:02;11.50;;;5.40;;
26989;SDS011;14537;47.788;11.858;2023-04-21T09:49:29;9.20;;;5.22;;
26989;SDS011;14537;47.788;11.858;2023-04-21T09:51:57;9.47;;;5.03;;
26989;SDS011;14537;47.788;11.858;2023-04-21T09:54:27;8.93;;;4.90;;
26989;SDS011;14537;47.788;11.858;2023-04-21T09:56:55;11.93;;;6.03;;
26989;SDS011;14537;47.788;11.858;2023-04-21T09:59:36;9.65;;;4.97;;
26989;SDS011;14537;47.788;11.858;2023-04-21T10:02:05;8.63;;;4.90;;
26989;SDS011;14537;47.788;11.858;2023-04-21T10:04:32;9.80;;;5.28;;
26989;SDS011;14537;47.788;11.858;2023-04-21T10:06:59;7.93;;;5.07;;
26989;SDS011;14537;47.788;11.858;2023-04-21T10:09:26;16.38;;;5.25;;
26989;SDS011;14537;47.788;11.858;2023-04-21T10:11:57;7.63;;;4.57;;
26989;SDS011;14537;47.788;11.858;2023-04-21T10:14:26;8.70;;;4.82;;
26989;SDS011;14537;47.788;11.858;2023-04-21T10:17:10;13.60;;;5.40;;
26989;SDS011;14537;47.788;11.858;2023-04-21T10:19:36;8.30;;;4.43;;
26989;SDS011;14537;47.788;11.858;2023-04-21T10:22:11;9.15;;;4.35;;
26989;SDS011;14537;47.788;11.858;2023-04-21T10:24:40;9.40;;;4.88;;
26989;SDS011;14537;47.788;11.858;2023-04-21T10:29:36;12.52;;;6.13;;
26989;SDS011;14537;47.788;11.858;2023-04-21T10:32:02;9.88;;;5.38;;
26989;SDS011;14537;47.788;11.858;2023-04-21T10:34:37;7.57;;;4.68;;
26989;SDS011;14537;47.788;11.858;2023-04-21T10:39:33;10.40;;;5.97;;
26989;SDS011;14537;47.788;11.858;2023-04-21T10:45:05;9.32;;;5.40;;
26989;SDS011;14537;47.788;11.858;2023-04-21T10:47:39;9.35;;;5.53;;
26989;SDS011;14537;47.788;11.858;2023-04-21T10:53:11;8.98;;;5.30;;
26989;SDS011;14537;47.788;11.858;2023-04-21T10:55:37;8.75;;;4.82;;
26989;SDS011;14537;47.788;11.858;2023-04-21T10:58:04;8.48;;;4.68;;
26989;SDS011;14537;47.788;11.858;2023-04-21T11:03:02;9.40;;;4.35;;
26989;SDS011;14537;47.788;11.858;2023-04-21T11:05:30;9.57;;;4.60;;
26989;SDS011;14537;47.788;11.858;2023-04-21T11:08:07;7.32;;;4.13;;
26989;SDS011;14537;47.788;11.858;2023-04-21T11:10:46;9.63;;;4.10;;
26989;SDS011;14537;47.788;11.858;2023-04-21T11:13:19;7.45;;;4.70;;
26989;SDS011;14537;47.788;11.858;2023-04-21T11:15:59;8.95;;;4.90;;
26989;SDS011;14537;47.788;11.858;2023-04-21T11:18:41;8.63;;;4.30;;
26989;SDS011;14537;47.788;11.858;2023-04-21T11:23:37;9.50;;;5.03;;
26989;SDS011;14537;47.788;11.858;2023-04-21T11:26:05;10.50;;;4.68;;
26989;SDS011;14537;47.788;11.858;2023-04-21T11:28:30;11.13;;;5.00;;
26989;SDS011;14537;47.788;11.858;2023-04-21T11:30:56;6.57;;;3.47;;
26989;SDS011;14537;47.788;11.858;2023-04-21T11:33:22;8.73;;;4.72;;
26989;SDS011;14537;47.788;11.858;2023-04-21T11:35:48;9.70;;;4.72;;
26989;SDS011;14537;47.788;11.858;2023-04-21T11:38:15;9.18;;;4.90;;
26989;SDS011;14537;47.788;11.858;2023-04-21T11:40:43;8.13;;;4.53;;
26989;SDS011;14537;47.788;11.858;2023-04-21T11:43:12;8.50;;;4.80;;
26989;SDS011;14537;47.788;11.858;2023-04-21T11:45:41;9.27;;;4.80;;
26989;SDS011;14537;47.788;11.858;2023-04-21T11:48:16;8.07;;;4.72;;
26989;SDS011;14537;47.788;11.858;2023-04-21T11:50:49;8.23;;;4.32;;
26989;SDS011;14537;47.788;11.858;2023-04-21T11:53:15;8.50;;;4.47;;
26989;SDS011;14537;47.788;11.858;2023-04-21T11:55:41;8.02;;;4.20;;
26989;SDS011;14537;47.788;11.858;2023-04-21T11:58:08;9.98;;;5.00;;
26989;SDS011;14537;47.788;11.858;2023-04-21T12:00:34;10.05;;;5.18;;
26989;SDS011;14537;47.788;11.858;2023-04-21T12:03:00;8.25;;;4.32;;
26989;SDS011;14537;47.788;11.858;2023-04-21T12:05:33;8.55;;;4.85;;
26989;SDS011;14537;47.788;11.858;2023-04-21T12:07:59;6.97;;;4.05;;
26989;SDS011;14537;47.788;11.858;2023-04-21T12:10:25;8.07;;;4.47;;
26989;SDS011;14537;47.788;11.858;2023-04-21T12:12:54;7.43;;;4.22;;
26989;SDS011;14537;47.788;11.858;2023-04-21T12:15:20;7.10;;;4.30;;
26989;SDS011;14537;47.788;11.858;2023-04-21T12:17:50;7.47;;;3.65;;
26989;SDS011;14537;47.788;11.858;2023-04-21T12:20:18;7.45;;;3.85;;
26989;SDS011;14537;47.788;11.858;2023-04-21T12:22:45;8.00;;;4.78;;
26989;SDS011;14537;47.788;11.858;2023-04-21T12:25:11;9.10;;;4.70;;
26989;SDS011;14537;47.788;11.858;2023-04-21T12:27:46;8.25;;;4.45;;
26989;SDS011;14537;47.788;11.858;2023-04-21T12:30:16;6.85;;;4.25;;
26989;SDS011;14537;47.788;11.858;2023-04-21T12:32:42;8.15;;;4.45;;
26989;SDS011;14537;47.788;11.858;2023-04-21T12:35:08;7.22;;;4.10;;
26989;SDS011;14537;47.788;11.858;2023-04-21T12:37:34;9.45;;;4.22;;
26989;SDS011;14537;47.788;11.858;2023-04-21T12:40:00;6.97;;;3.85;;
26989;SDS011;14537;47.788;11.858;2023-04-21T12:42:26;8.55;;;3.50;;
26989;SDS011;14537;47.788;11.858;2023-04-21T12:44:51;8.60;;;4.18;;
26989;SDS011;14537;47.788;11.858;2023-04-21T12:47:17;5.88;;;3.42;;
26989;SDS011;14537;47.788;11.858;2023-04-21T12:49:42;6.22;;;3.80;;
26989;SDS011;14537;47.788;11.858;2023-04-21T12:52:08;6.15;;;3.53;;
26989;SDS011;14537;47.788;11.858;2023-04-21T12:54:34;5.70;;;3.63;;
26989;SDS011;14537;47.788;11.858;2023-04-21T12:56:59;6.43;;;3.65;;
26989;SDS011;14537;47.788;11.858;2023-04-21T12:59:26;4.68;;;3.05;;
26989;SDS011;14537;47.788;11.858;2023-04-21T13:01:51;6.68;;;3.15;;
26989;SDS011;14537;47.788;11.858;2023-04-21T13:04:17;4.18;;;2.65;;
26989;SDS011;14537;47.788;11.858;2023-04-21T13:06:43;6.25;;;2.90;;
26989;SDS011;14537;47.788;11.858;2023-04-21T13:09:08;6.40;;;2.72;;
26989;SDS011;14537;47.788;11.858;2023-04-21T13:11:35;3.30;;;2.17;;
26989;SDS011;14537;47.788;11.858;2023-04-21T13:14:00;4.28;;;2.85;;
26989;SDS011;14537;47.788;11.858;2023-04-21T13:16:28;5.65;;;2.70;;
26989;SDS011;14537;47.788;11.858;2023-04-21T13:18:54;4.13;;;2.70;;
26989;SDS011;14537;47.788;11.858;2023-04-21T13:21:19;4.28;;;2.63;;
26989;SDS011;14537;47.788;11.858;2023-04-21T13:23:45;3.40;;;2.15;;
26989;SDS011;14537;47.788;11.858;2023-04-21T13:26:10;3.40;;;2.10;;
26989;SDS011;14537;47.788;11.858;2023-04-21T13:28:37;3.42;;;2.40;;
26989;SDS011;14537;47.788;11.858;2023-04-21T13:31:02;3.65;;;2.10;;
26989;SDS011;14537;47.788;11.858;2023-04-21T13:33:28;3.92;;;2.00;;
26989;SDS011;14537;47.788;11.858;2023-04-21T13:35:58;2.55;;;1.42;;
26989;SDS011;14537;47.788;11.858;2023-04-21T13:38:24;1.65;;;1.40;;
26989;SDS011;14537;47.788;11.858;2023-04-21T13:40:50;1.58;;;1.23;;
26989;SDS011;14537;47.788;11.858;2023-04-21T13:43:18;1.58;;;1.35;;
26989;SDS011;14537;47.788;11.858;2023-04-21T13:45:43;2.22;;;1.30;;
26989;SDS011;14537;47.788;11.858;2023-04-21T13:48:11;3.47;;;1.75;;
26989;SDS011;14537;47.788;11.858;2023-04-21T13:50:36;4.55;;;1.77;;
26989;SDS011;14537;47.788;11.858;2023-04-21T13:53:02;2.10;;;1.77;;
26989;SDS011;14537;47.788;11.858;2023-04-21T13:55:28;3.08;;;1.95;;
26989;SDS011;14537;47.788;11.858;2023-04-21T13:57:53;2.03;;;1.42;;
26989;SDS011;14537;47.788;11.858;2023-04-21T14:00:19;2.75;;;1.50;;
26989;SDS011;14537;47.788;11.858;2023-04-21T14:02:45;1.45;;;1.10;;
26989;SDS011;14537;47.788;11.858;2023-04-21T14:05:11;1.75;;;1.23;;
26989;SDS011;14537;47.788;11.858;2023-04-21T14:07:37;4.40;;;1.20;;
26989;SDS011;14537;47.788;11.858;2023-04-21T14:10:02;1.77;;;1.10;;
26989;SDS011;14537;47.788;11.858;2023-04-21T14:12:28;4.00;;;1.20;;
26989;SDS011;14537;47.788;11.858;2023-04-21T14:14:54;1.45;;;1.10;;
26989;SDS011;14537;47.788;11.858;2023-04-21T14:17:19;1.77;;;1.20;;
26989;SDS011;14537;47.788;11.858;2023-04-21T14:19:47;1.13;;;1.00;;
26989;SDS011;14537;47.788;11.858;2023-04-21T14:22:12;1.23;;;0.98;;
26989;SDS011;14537;47.788;11.858;2023-04-21T14:24:38;2.17;;;1.40;;
26989;SDS011;14537;47.788;11.858;2023-04-21T14:27:03;1.60;;;1.13;;
26989;SDS011;14537;47.788;11.858;2023-04-21T14:29:30;2.38;;;1.40;;
26989;SDS011;14537;47.788;11.858;2023-04-21T14:31:55;2.63;;;1.00;;
26989;SDS011;14537;47.788;11.858;2023-04-21T14:34:22;1.52;;;1.20;;
26989;SDS011;14537;47.788;11.858;2023-04-21T14:36:50;1.15;;;1.00;;
26989;SDS011;14537;47.788;11.858;2023-04-21T14:39:15;1.20;;;0.90;;
26989;SDS011;14537;47.788;11.858;2023-04-21T14:41:41;1.52;;;0.80;;
26989;SDS011;14537;47.788;11.858;2023-04-21T14:44:07;1.60;;;0.95;;
26989;SDS011;14537;47.788;11.858;2023-04-21T14:46:32;3.50;;;1.30;;